sensor_id;sensor_type;location;lat;lon;timestamp;pressure;altitude;pressure_sealevel;temperature;humidity
34979;BME280;21185;50.978;13.720;2022-10-16T00:02:29;98040.47;;;15.54;77.41
34979;BME280;21185;50.978;13.720;2022-10-16T00:07:31;98041.66;;;15.51;77.41
34979;BME280;21185;50.978;13.720;2022-10-16T00:12:33;98050.13;;;15.47;77.32
34979;BME280;21185;50.978;13.720;2022-10-16T00:17:34;98047.88;;;15.44;77.39
34979;BME280;21185;50.978;13.720;2022-10-16T00:22:36;98049.09;;;15.41;77.35
34979;BME280;21185;50.978;13.720;2022-10-16T00:27:38;98051.09;;;15.39;77.39
34979;BME280;21185;50.978;13.720;2022-10-16T00:32:40;98050.50;;;15.37;77.31
34979;BME280;21185;50.978;13.720;2022-10-16T00:37:42;98041.25;;;15.35;77.27
34979;BME280;21185;50.978;13.720;2022-10-16T00:42:44;98058.72;;;15.34;77.29
34979;BME280;21185;50.978;13.720;2022-10-16T00:47:46;98065.97;;;15.32;77.34
34979;BME280;21185;50.978;13.720;2022-10-16T00:52:52;98081.66;;;15.32;77.38
34979;BME280;21185;50.978;13.720;2022-10-16T00:57:55;98078.44;;;15.30;77.33
34979;BME280;21185;50.978;13.720;2022-10-16T01:03:02;98074.19;;;15.29;77.45
34979;BME280;21185;50.978;13.720;2022-10-16T01:13:18;98065.56;;;15.29;77.72
34979;BME280;21185;50.978;13.720;2022-10-16T01:18:26;98064.75;;;15.28;77.63
34979;BME280;21185;50.978;13.720;2022-10-16T01:28:53;98075.03;;;15.36;77.82
34979;BME280;21185;50.978;13.720;2022-10-16T01:34:02;98088.53;;;15.46;78.02
34979;BME280;21185;50.978;13.720;2022-10-16T01:39:09;98080.13;;;15.58;78.19
34979;BME280;21185;50.978;13.720;2022-10-16T01:44:33;98089.38;;;15.67;78.22
34979;BME280;21185;50.978;13.720;2022-10-16T01:49:37;98100.66;;;15.74;78.28
34979;BME280;21185;50.978;13.720;2022-10-16T01:54:42;98084.56;;;15.77;78.41
34979;BME280;21185;50.978;13.720;2022-10-16T01:59:51;98084.16;;;15.80;78.50
34979;BME280;21185;50.978;13.720;2022-10-16T02:04:58;98093.63;;;15.81;78.40
34979;BME280;21185;50.978;13.720;2022-10-16T02:10:02;98088.00;;;15.84;78.47
34979;BME280;21185;50.978;13.720;2022-10-16T02:15:05;98096.63;;;15.84;78.70
34979;BME280;21185;50.978;13.720;2022-10-16T02:20:07;98106.31;;;15.84;78.56
34979;BME280;21185;50.978;13.720;2022-10-16T02:25:18;98112.53;;;15.83;78.87
34979;BME280;21185;50.978;13.720;2022-10-16T02:30:29;98095.84;;;15.84;78.94
34979;BME280;21185;50.978;13.720;2022-10-16T02:35:35;98099.47;;;15.83;79.00
34979;BME280;21185;50.978;13.720;2022-10-16T02:40:37;98107.31;;;15.83;79.20
34979;BME280;21185;50.978;13.720;2022-10-16T02:45:40;98105.50;;;15.83;78.99
34979;BME280;21185;50.978;13.720;2022-10-16T02:50:42;98099.47;;;15.83;79.07
34979;BME280;21185;50.978;13.720;2022-10-16T02:55:44;98104.09;;;15.81;79.16
34979;BME280;21185;50.978;13.720;2022-10-16T03:00:46;98100.06;;;15.78;79.19
34979;BME280;21185;50.978;13.720;2022-10-16T03:05:48;98089.19;;;15.75;79.41
34979;BME280;21185;50.978;13.720;2022-10-16T03:10:50;98091.38;;;15.71;79.27
34979;BME280;21185;50.978;13.720;2022-10-16T03:15:52;98092.59;;;15.69;79.31
34979;BME280;21185;50.978;13.720;2022-10-16T03:20:54;98103.25;;;15.67;79.47
34979;BME280;21185;50.978;13.720;2022-10-16T03:25:56;98119.16;;;15.66;79.37
34979;BME280;21185;50.978;13.720;2022-10-16T03:30:58;98122.16;;;15.63;79.42
34979;BME280;21185;50.978;13.720;2022-10-16T03:36:00;98115.53;;;15.60;79.47
34979;BME280;21185;50.978;13.720;2022-10-16T03:41:02;98115.75;;;15.59;79.40
34979;BME280;21185;50.978;13.720;2022-10-16T03:46:05;98120.34;;;15.57;79.29
34979;BME280;21185;50.978;13.720;2022-10-16T03:51:07;98123.94;;;15.55;79.47
34979;BME280;21185;50.978;13.720;2022-10-16T03:56:09;98118.13;;;15.53;79.48
34979;BME280;21185;50.978;13.720;2022-10-16T04:01:11;98134.00;;;15.52;79.79
34979;BME280;21185;50.978;13.720;2022-10-16T04:06:13;98136.81;;;15.50;79.46
34979;BME280;21185;50.978;13.720;2022-10-16T04:11:15;98140.44;;;15.49;79.56
34979;BME280;21185;50.978;13.720;2022-10-16T04:16:17;98147.47;;;15.49;79.46
34979;BME280;21185;50.978;13.720;2022-10-16T04:21:19;98164.16;;;15.48;79.51
34979;BME280;21185;50.978;13.720;2022-10-16T04:26:20;98160.16;;;15.52;79.72
34979;BME280;21185;50.978;13.720;2022-10-16T04:31:22;98150.09;;;15.55;79.82
34979;BME280;21185;50.978;13.720;2022-10-16T04:36:24;98153.72;;;15.54;79.81
34979;BME280;21185;50.978;13.720;2022-10-16T04:41:29;98162.19;;;15.57;79.89
34979;BME280;21185;50.978;13.720;2022-10-16T04:46:31;98161.38;;;15.56;79.90
34979;BME280;21185;50.978;13.720;2022-10-16T04:51:33;98161.00;;;15.59;79.93
34979;BME280;21185;50.978;13.720;2022-10-16T04:56:36;98170.66;;;15.59;79.88
34979;BME280;21185;50.978;13.720;2022-10-16T05:01:45;98164.00;;;15.56;80.03
34979;BME280;21185;50.978;13.720;2022-10-16T05:06:47;98160.97;;;15.52;80.00
34979;BME280;21185;50.978;13.720;2022-10-16T05:11:49;98157.72;;;15.50;80.00
34979;BME280;21185;50.978;13.720;2022-10-16T05:16:51;98166.59;;;15.49;79.89
34979;BME280;21185;50.978;13.720;2022-10-16T05:21:53;98169.19;;;15.49;79.98
34979;BME280;21185;50.978;13.720;2022-10-16T05:26:55;98169.38;;;15.48;80.08
34979;BME280;21185;50.978;13.720;2022-10-16T05:31:57;98185.28;;;15.46;80.19
34979;BME280;21185;50.978;13.720;2022-10-16T05:36:59;98185.28;;;15.46;80.11
34979;BME280;21185;50.978;13.720;2022-10-16T05:42:01;98187.28;;;15.44;80.03
34979;BME280;21185;50.978;13.720;2022-10-16T05:47:02;98189.09;;;15.44;80.16
34979;BME280;21185;50.978;13.720;2022-10-16T05:52:04;98195.94;;;15.45;80.17
34979;BME280;21185;50.978;13.720;2022-10-16T05:57:06;98213.22;;;15.46;80.20
34979;BME280;21185;50.978;13.720;2022-10-16T06:02:12;98215.66;;;15.47;80.09
34979;BME280;21185;50.978;13.720;2022-10-16T06:07:15;98222.09;;;15.51;80.14
34979;BME280;21185;50.978;13.720;2022-10-16T06:12:17;98222.72;;;15.53;80.27
34979;BME280;21185;50.978;13.720;2022-10-16T06:17:19;98233.78;;;15.55;80.44
34979;BME280;21185;50.978;13.720;2022-10-16T06:22:21;98233.25;;;15.60;80.46
34979;BME280;21185;50.978;13.720;2022-10-16T06:27:23;98240.47;;;15.65;80.34
34979;BME280;21185;50.978;13.720;2022-10-16T06:32:25;98244.72;;;15.72;80.39
34979;BME280;21185;50.978;13.720;2022-10-16T06:37:28;98245.75;;;15.78;80.42
34979;BME280;21185;50.978;13.720;2022-10-16T06:42:30;98254.44;;;15.85;80.67
34979;BME280;21185;50.978;13.720;2022-10-16T06:47:33;98258.88;;;15.91;80.73
34979;BME280;21185;50.978;13.720;2022-10-16T06:52:35;98266.97;;;16.03;80.73
34979;BME280;21185;50.978;13.720;2022-10-16T06:57:36;98260.56;;;16.12;80.76
34979;BME280;21185;50.978;13.720;2022-10-16T07:02:38;98281.94;;;16.22;81.00
34979;BME280;21185;50.978;13.720;2022-10-16T07:07:40;98269.03;;;16.27;80.73
34979;BME280;21185;50.978;13.720;2022-10-16T07:12:42;98275.31;;;16.33;80.89
34979;BME280;21185;50.978;13.720;2022-10-16T07:17:46;98293.84;;;16.38;80.97
34979;BME280;21185;50.978;13.720;2022-10-16T07:22:48;98303.31;;;16.45;80.99
34979;BME280;21185;50.978;13.720;2022-10-16T07:27:50;98303.34;;;16.52;80.98
34979;BME280;21185;50.978;13.720;2022-10-16T07:32:52;98326.31;;;16.57;80.97
34979;BME280;21185;50.978;13.720;2022-10-16T07:37:53;98327.53;;;16.61;80.87
34979;BME280;21185;50.978;13.720;2022-10-16T07:42:55;98338.44;;;16.64;81.07
34979;BME280;21185;50.978;13.720;2022-10-16T07:47:57;98337.66;;;16.70;80.96
34979;BME280;21185;50.978;13.720;2022-10-16T07:52:59;98344.53;;;16.78;80.85
34979;BME280;21185;50.978;13.720;2022-10-16T07:58:01;98357.22;;;16.88;80.96
34979;BME280;21185;50.978;13.720;2022-10-16T08:03:03;98359.47;;;16.97;80.96
34979;BME280;21185;50.978;13.720;2022-10-16T08:08:05;98350.19;;;17.08;80.96
34979;BME280;21185;50.978;13.720;2022-10-16T08:13:08;98328.19;;;17.22;80.66
34979;BME280;21185;50.978;13.720;2022-10-16T08:18:11;98334.84;;;17.31;80.78
34979;BME280;21185;50.978;13.720;2022-10-16T08:23:14;98334.25;;;17.36;80.99
34979;BME280;21185;50.978;13.720;2022-10-16T08:28:16;98333.22;;;17.37;80.90
34979;BME280;21185;50.978;13.720;2022-10-16T08:33:18;98342.50;;;17.39;81.10
34979;BME280;21185;50.978;13.720;2022-10-16T08:38:20;98356.63;;;17.45;81.02
34979;BME280;21185;50.978;13.720;2022-10-16T08:43:43;98355.41;;;17.54;81.20
34979;BME280;21185;50.978;13.720;2022-10-16T08:48:54;98348.13;;;17.63;80.93
34979;BME280;21185;50.978;13.720;2022-10-16T08:54:01;98361.44;;;17.74;80.79
34979;BME280;21185;50.978;13.720;2022-10-16T08:59:06;98358.63;;;17.76;80.79
34979;BME280;21185;50.978;13.720;2022-10-16T09:10:01;98350.34;;;17.72;80.77
34979;BME280;21185;50.978;13.720;2022-10-16T09:15:31;98349.53;;;17.72;80.93
34979;BME280;21185;50.978;13.720;2022-10-16T09:21:01;98348.31;;;17.74;81.08
34979;BME280;21185;50.978;13.720;2022-10-16T09:26:11;98365.25;;;17.85;80.93
34979;BME280;21185;50.978;13.720;2022-10-16T09:31:20;98348.63;;;18.04;80.55
34979;BME280;21185;50.978;13.720;2022-10-16T09:36:23;98346.38;;;18.15;80.54
34979;BME280;21185;50.978;13.720;2022-10-16T09:41:26;98363.09;;;18.27;80.16
34979;BME280;21185;50.978;13.720;2022-10-16T09:46:34;98361.19;;;18.40;80.05
34979;BME280;21185;50.978;13.720;2022-10-16T09:51:37;98377.09;;;18.52;80.14
34979;BME280;21185;50.978;13.720;2022-10-16T09:56:39;98369.41;;;18.57;79.47
34979;BME280;21185;50.978;13.720;2022-10-16T10:01:52;98372.03;;;18.64;79.65
34979;BME280;21185;50.978;13.720;2022-10-16T10:06:56;98388.97;;;18.68;79.38
34979;BME280;21185;50.978;13.720;2022-10-16T10:12:00;98383.72;;;18.68;79.36
34979;BME280;21185;50.978;13.720;2022-10-16T10:22:42;98397.25;;;18.71;79.25
34979;BME280;21185;50.978;13.720;2022-10-16T10:39:02;98410.91;;;18.87;78.71
34979;BME280;21185;50.978;13.720;2022-10-16T10:44:18;98416.13;;;18.93;78.38
34979;BME280;21185;50.978;13.720;2022-10-16T11:00:30;98430.06;;;19.57;77.29
34979;BME280;21185;50.978;13.720;2022-10-16T11:05:46;98425.53;;;19.64;76.96
34979;BME280;21185;50.978;13.720;2022-10-16T11:10:53;98427.56;;;19.62;77.41
34979;BME280;21185;50.978;13.720;2022-10-16T11:16:00;98429.19;;;19.63;77.44
34979;BME280;21185;50.978;13.720;2022-10-16T11:21:08;98436.06;;;19.64;76.95
34979;BME280;21185;50.978;13.720;2022-10-16T11:26:16;98438.09;;;19.62;77.07
34979;BME280;21185;50.978;13.720;2022-10-16T11:47:40;98440.03;;;19.73;76.53
34979;BME280;21185;50.978;13.720;2022-10-16T11:53:13;98433.47;;;19.82;76.33
34979;BME280;21185;50.978;13.720;2022-10-16T11:58:28;98447.00;;;19.86;76.31
34979;BME280;21185;50.978;13.720;2022-10-16T12:09:27;98450.09;;;20.01;75.72
34979;BME280;21185;50.978;13.720;2022-10-16T12:14:38;98451.50;;;20.03;75.07
34979;BME280;21185;50.978;13.720;2022-10-16T12:25:31;98448.56;;;20.12;74.78
34979;BME280;21185;50.978;13.720;2022-10-16T12:30:35;98459.09;;;20.12;74.37
34979;BME280;21185;50.978;13.720;2022-10-16T12:35:43;98467.00;;;20.12;74.09
34979;BME280;21185;50.978;13.720;2022-10-16T12:40:58;98465.53;;;20.16;73.76
34979;BME280;21185;50.978;13.720;2022-10-16T13:18:59;98478.66;;;20.59;72.90
34979;BME280;21185;50.978;13.720;2022-10-16T13:24:02;98473.47;;;20.52;72.74
34979;BME280;21185;50.978;13.720;2022-10-16T13:29:09;98468.06;;;20.47;72.71
34979;BME280;21185;50.978;13.720;2022-10-16T13:34:15;98482.28;;;20.46;72.72
34979;BME280;21185;50.978;13.720;2022-10-16T13:39:25;98476.41;;;20.44;73.23
34979;BME280;21185;50.978;13.720;2022-10-16T13:44:31;98467.13;;;20.42;73.50
34979;BME280;21185;50.978;13.720;2022-10-16T13:49:36;98474.94;;;20.48;73.40
34979;BME280;21185;50.978;13.720;2022-10-16T13:54:38;98475.09;;;20.53;73.61
34979;BME280;21185;50.978;13.720;2022-10-16T13:59:41;98485.28;;;20.50;73.18
34979;BME280;21185;50.978;13.720;2022-10-16T14:04:43;98488.13;;;20.48;73.17
34979;BME280;21185;50.978;13.720;2022-10-16T14:09:49;98492.00;;;20.46;73.22
34979;BME280;21185;50.978;13.720;2022-10-16T14:14:53;98502.63;;;20.39;73.28
34979;BME280;21185;50.978;13.720;2022-10-16T14:19:58;98503.47;;;20.33;73.39
34979;BME280;21185;50.978;13.720;2022-10-16T14:30:23;98513.28;;;20.26;73.48
34979;BME280;21185;50.978;13.720;2022-10-16T14:35:28;98507.41;;;20.24;73.51
34979;BME280;21185;50.978;13.720;2022-10-16T14:40:36;98521.25;;;20.19;73.70
34979;BME280;21185;50.978;13.720;2022-10-16T14:45:39;98512.38;;;20.14;73.88
34979;BME280;21185;50.978;13.720;2022-10-16T14:50:43;98516.47;;;20.10;73.75
34979;BME280;21185;50.978;13.720;2022-10-16T14:55:47;98526.41;;;20.08;73.92
34979;BME280;21185;50.978;13.720;2022-10-16T15:00:50;98529.28;;;20.06;73.88
34979;BME280;21185;50.978;13.720;2022-10-16T15:05:52;98530.50;;;20.03;73.91
34979;BME280;21185;50.978;13.720;2022-10-16T15:10:54;98532.78;;;20.00;73.82
34979;BME280;21185;50.978;13.720;2022-10-16T15:15:56;98550.81;;;19.96;73.95
34979;BME280;21185;50.978;13.720;2022-10-16T15:20:58;98547.59;;;19.94;73.96
34979;BME280;21185;50.978;13.720;2022-10-16T15:25:59;98564.00;;;19.96;74.48
34979;BME280;21185;50.978;13.720;2022-10-16T15:31:04;98559.38;;;19.92;74.74
34979;BME280;21185;50.978;13.720;2022-10-16T15:36:06;98569.16;;;19.85;74.74
34979;BME280;21185;50.978;13.720;2022-10-16T15:41:08;98574.09;;;19.75;74.76
34979;BME280;21185;50.978;13.720;2022-10-16T15:46:12;98590.34;;;19.65;75.03
34979;BME280;21185;50.978;13.720;2022-10-16T15:51:17;98587.97;;;19.57;75.43
34979;BME280;21185;50.978;13.720;2022-10-16T15:56:19;98593.66;;;19.47;74.93
34979;BME280;21185;50.978;13.720;2022-10-16T16:01:21;98588.47;;;19.34;75.26
34979;BME280;21185;50.978;13.720;2022-10-16T16:06:23;98590.16;;;19.22;75.56
34979;BME280;21185;50.978;13.720;2022-10-16T16:11:25;98598.72;;;19.11;75.53
34979;BME280;21185;50.978;13.720;2022-10-16T16:16:27;98601.19;;;18.99;75.97
34979;BME280;21185;50.978;13.720;2022-10-16T16:21:29;98610.53;;;18.88;75.75
34979;BME280;21185;50.978;13.720;2022-10-16T16:26:31;98599.84;;;18.76;76.04
34979;BME280;21185;50.978;13.720;2022-10-16T16:31:37;98612.59;;;18.66;76.01
34979;BME280;21185;50.978;13.720;2022-10-16T16:36:39;98631.38;;;18.57;76.13
34979;BME280;21185;50.978;13.720;2022-10-16T16:41:41;98638.66;;;18.48;76.31
34979;BME280;21185;50.978;13.720;2022-10-16T16:46:44;98647.56;;;18.40;76.35
34979;BME280;21185;50.978;13.720;2022-10-16T16:51:46;98657.28;;;18.33;76.06
34979;BME280;21185;50.978;13.720;2022-10-16T16:56:48;98671.63;;;18.31;76.34
34979;BME280;21185;50.978;13.720;2022-10-16T17:01:50;98679.50;;;18.24;76.23
34979;BME280;21185;50.978;13.720;2022-10-16T17:06:57;98690.59;;;18.20;75.96
34979;BME280;21185;50.978;13.720;2022-10-16T17:12:00;98695.84;;;18.06;75.73
34979;BME280;21185;50.978;13.720;2022-10-16T17:17:02;98693.41;;;17.98;76.17
34979;BME280;21185;50.978;13.720;2022-10-16T17:22:03;98709.75;;;17.94;75.90
34979;BME280;21185;50.978;13.720;2022-10-16T17:27:05;98719.03;;;17.90;75.97
34979;BME280;21185;50.978;13.720;2022-10-16T17:32:07;98718.00;;;17.84;75.90
34979;BME280;21185;50.978;13.720;2022-10-16T17:37:09;98717.41;;;17.82;75.74
34979;BME280;21185;50.978;13.720;2022-10-16T17:42:19;98727.28;;;17.80;75.81
34979;BME280;21185;50.978;13.720;2022-10-16T17:47:21;98729.09;;;17.79;75.81
34979;BME280;21185;50.978;13.720;2022-10-16T17:52:23;98737.78;;;17.80;75.69
34979;BME280;21185;50.978;13.720;2022-10-16T17:57:25;98744.25;;;17.84;75.74
34979;BME280;21185;50.978;13.720;2022-10-16T18:02:28;98752.75;;;17.86;75.70
34979;BME280;21185;50.978;13.720;2022-10-16T18:07:31;98755.97;;;17.88;75.80
34979;BME280;21185;50.978;13.720;2022-10-16T18:12:33;98767.91;;;17.91;75.50
34979;BME280;21185;50.978;13.720;2022-10-16T18:17:34;98768.72;;;17.91;75.56
34979;BME280;21185;50.978;13.720;2022-10-16T18:22:39;98768.53;;;17.93;75.70
34979;BME280;21185;50.978;13.720;2022-10-16T18:27:41;98776.59;;;17.91;75.67
34979;BME280;21185;50.978;13.720;2022-10-16T18:32:43;98794.75;;;17.86;75.81
34979;BME280;21185;50.978;13.720;2022-10-16T18:37:45;98794.53;;;17.81;75.70
34979;BME280;21185;50.978;13.720;2022-10-16T18:42:47;98803.56;;;17.72;75.85
34979;BME280;21185;50.978;13.720;2022-10-16T18:47:50;98802.69;;;17.65;75.65
34979;BME280;21185;50.978;13.720;2022-10-16T18:52:52;98797.22;;;17.60;75.85
34979;BME280;21185;50.978;13.720;2022-10-16T18:57:57;98793.75;;;17.53;75.67
34979;BME280;21185;50.978;13.720;2022-10-16T19:02:59;98790.91;;;17.47;75.60
34979;BME280;21185;50.978;13.720;2022-10-16T19:08:01;98789.66;;;17.43;75.77
34979;BME280;21185;50.978;13.720;2022-10-16T19:13:03;98799.16;;;17.44;75.56
34979;BME280;21185;50.978;13.720;2022-10-16T19:18:10;98792.91;;;17.45;75.53
34979;BME280;21185;50.978;13.720;2022-10-16T19:23:12;98812.09;;;17.46;75.80
34979;BME280;21185;50.978;13.720;2022-10-16T19:28:14;98814.72;;;17.46;75.72
34979;BME280;21185;50.978;13.720;2022-10-16T19:33:16;98810.66;;;17.43;75.80
34979;BME280;21185;50.978;13.720;2022-10-16T19:38:18;98814.28;;;17.42;75.91
34979;BME280;21185;50.978;13.720;2022-10-16T19:43:21;98831.03;;;17.41;76.07
34979;BME280;21185;50.978;13.720;2022-10-16T19:48:23;98839.91;;;17.40;75.85
34979;BME280;21185;50.978;13.720;2022-10-16T19:53:26;98844.53;;;17.38;76.17
34979;BME280;21185;50.978;13.720;2022-10-16T19:58:29;98841.28;;;17.36;76.15
34979;BME280;21185;50.978;13.720;2022-10-16T20:03:31;98837.22;;;17.34;76.14
34979;BME280;21185;50.978;13.720;2022-10-16T20:08:34;98843.28;;;17.34;76.31
34979;BME280;21185;50.978;13.720;2022-10-16T20:13:36;98840.28;;;17.37;76.38
34979;BME280;21185;50.978;13.720;2022-10-16T20:18:44;98837.66;;;17.37;76.24
34979;BME280;21185;50.978;13.720;2022-10-16T20:23:46;98841.28;;;17.36;76.21
34979;BME280;21185;50.978;13.720;2022-10-16T20:28:49;98846.53;;;17.36;75.96
34979;BME280;21185;50.978;13.720;2022-10-16T20:33:54;98842.91;;;17.37;76.35
34979;BME280;21185;50.978;13.720;2022-10-16T20:38:56;98847.97;;;17.39;76.22
34979;BME280;21185;50.978;13.720;2022-10-16T20:43:58;98858.25;;;17.40;76.28
34979;BME280;21185;50.978;13.720;2022-10-16T20:49:00;98854.44;;;17.43;76.19
34979;BME280;21185;50.978;13.720;2022-10-16T20:54:17;98854.25;;;17.44;76.48
34979;BME280;21185;50.978;13.720;2022-10-16T20:59:18;98864.50;;;17.39;76.56
34979;BME280;21185;50.978;13.720;2022-10-16T21:04:20;98872.56;;;17.38;76.48
34979;BME280;21185;50.978;13.720;2022-10-16T21:09:22;98874.75;;;17.34;76.48
34979;BME280;21185;50.978;13.720;2022-10-16T21:14:25;98876.34;;;17.29;76.64
34979;BME280;21185;50.978;13.720;2022-10-16T21:19:29;98879.53;;;17.24;76.83
34979;BME280;21185;50.978;13.720;2022-10-16T21:24:31;98885.34;;;17.20;76.64
34979;BME280;21185;50.978;13.720;2022-10-16T21:29:33;98892.34;;;17.12;76.73
34979;BME280;21185;50.978;13.720;2022-10-16T21:34:36;98899.34;;;17.05;76.63
34979;BME280;21185;50.978;13.720;2022-10-16T21:39:38;98906.16;;;17.00;76.51
34979;BME280;21185;50.978;13.720;2022-10-16T21:44:40;98908.53;;;16.95;76.41
34979;BME280;21185;50.978;13.720;2022-10-16T21:49:42;98904.84;;;16.89;76.29
34979;BME280;21185;50.978;13.720;2022-10-16T21:54:44;98910.81;;;16.83;76.35
34979;BME280;21185;50.978;13.720;2022-10-16T21:59:48;98903.72;;;16.77;76.33
34979;BME280;21185;50.978;13.720;2022-10-16T22:04:50;98907.50;;;16.74;76.50
34979;BME280;21185;50.978;13.720;2022-10-16T22:09:52;98904.25;;;16.72;76.17
34979;BME280;21185;50.978;13.720;2022-10-16T22:14:54;98902.47;;;16.73;76.17
34979;BME280;21185;50.978;13.720;2022-10-16T22:19:55;98905.88;;;16.73;76.27
34979;BME280;21185;50.978;13.720;2022-10-16T22:24:57;98908.50;;;16.73;76.16
34979;BME280;21185;50.978;13.720;2022-10-16T22:30:00;98912.94;;;16.73;76.53
34979;BME280;21185;50.978;13.720;2022-10-16T22:35:01;98921.16;;;16.70;76.51
34979;BME280;21185;50.978;13.720;2022-10-16T22:40:04;98916.94;;;16.69;76.38
34979;BME280;21185;50.978;13.720;2022-10-16T22:45:06;98914.13;;;16.70;76.47
34979;BME280;21185;50.978;13.720;2022-10-16T22:50:08;98909.69;;;16.71;76.34
34979;BME280;21185;50.978;13.720;2022-10-16T22:55:10;98909.69;;;16.71;76.46
34979;BME280;21185;50.978;13.720;2022-10-16T23:00:16;98914.50;;;16.67;76.45
34979;BME280;21185;50.978;13.720;2022-10-16T23:05:18;98918.44;;;16.63;76.64
34979;BME280;21185;50.978;13.720;2022-10-16T23:10:19;98921.44;;;16.60;76.46
34979;BME280;21185;50.978;13.720;2022-10-16T23:15:25;98913.94;;;16.57;76.41
34979;BME280;21185;50.978;13.720;2022-10-16T23:20:27;98926.59;;;16.53;76.43
34979;BME280;21185;50.978;13.720;2022-10-16T23:25:29;98928.41;;;16.53;76.35
34979;BME280;21185;50.978;13.720;2022-10-16T23:30:31;98932.38;;;16.49;76.28
34979;BME280;21185;50.978;13.720;2022-10-16T23:35:32;98934.75;;;16.44;76.34
34979;BME280;21185;50.978;13.720;2022-10-16T23:40:34;98938.72;;;16.40;76.35
34979;BME280;21185;50.978;13.720;2022-10-16T23:45:36;98938.28;;;16.36;76.14
34979;BME280;21185;50.978;13.720;2022-10-16T23:50:38;98943.88;;;16.33;76.24
34979;BME280;21185;50.978;13.720;2022-10-16T23:55:41;98942.25;;;16.32;76.53
